Time;durP1;ratioP1;P1;durP2;ratioP2;P2;SDS_P1;SDS_P2;PMS_P1;PMS_P2;Temp;Humidity;BMP_temperature;BMP_pressure;BME280_temperature;BME280_humidity;BME280_pressure;Samples;Min_cycle;Max_cycle;Signal;HPM_P1;HPM_P2
2022/09/23 00:00:23;;;;;;;8.95;7.72;;;;;;;16.85;100.00;99558.59;10377116;28;20045;-68
2022/09/23 00:05:26;;;;;;;10.23;8.18;;;;;;;16.84;100.00;99567.69;10376413;28;20076;-67
2022/09/23 00:10:29;;;;;;;9.20;8.20;;;;;;;16.90;100.00;99595.44;10376967;28;20037;-67
2022/09/23 00:15:30;;;;;;;9.23;7.57;;;;;;;16.70;100.00;99563.53;10376795;28;20042;-67
2022/09/23 00:20:34;;;;;;;15.07;8.57;;;;;;;16.76;100.00;99576.06;10375834;28;20414;-67
2022/09/23 00:25:34;;;;;;;14.68;8.82;;;;;;;16.67;100.00;99577.38;10376401;28;20034;-67
2022/09/23 00:30:35;;;;;;;9.95;7.72;;;;;;;16.79;100.00;99596.25;10375973;28;20068;-67
2022/09/23 00:35:37;;;;;;;10.40;8.25;;;;;;;16.68;100.00;99600.47;10375382;28;20410;-67
2022/09/23 00:40:48;;;;;;;10.50;8.40;;;;;;;16.80;100.00;99609.41;10375889;28;20050;-67
2022/09/23 00:45:50;;;;;;;12.43;8.50;;;;;;;16.74;100.00;99607.59;10376032;28;20569;-67
2022/09/23 00:50:53;;;;;;;12.02;8.80;;;;;;;16.72;100.00;99609.72;10375548;28;20050;-67
2022/09/23 00:56:01;;;;;;;11.90;9.10;;;;;;;16.69;100.00;99612.00;10374514;28;20054;-67
2022/09/23 01:01:03;;;;;;;10.52;8.23;;;;;;;16.34;100.00;99537.59;10389556;28;20046;-67
2022/09/23 01:06:04;;;;;;;9.93;8.90;;;;;;;16.63;100.00;99582.38;10374847;28;20503;-67
2022/09/23 01:11:29;;;;;;;11.20;9.00;;;;;;;16.71;100.00;99593.84;10389799;28;20042;-67
2022/09/23 01:16:41;;;;;;;10.48;8.65;;;;;;;16.69;100.00;99590.56;10374858;28;20445;-67
2022/09/23 01:22:00;;;;;;;9.82;8.82;;;;;;;16.02;100.00;99488.72;10373478;28;20042;-67
2022/09/23 01:27:06;;;;;;;10.13;8.93;;;;;;;16.58;100.00;99606.38;10373462;28;20480;-67
2022/09/23 01:32:41;;;;;;;16.30;9.43;;;;;;;16.58;100.00;99597.50;10373839;28;20041;-67
2022/09/23 01:37:47;;;;;;;12.82;8.80;;;;;;;15.68;100.00;99443.56;10362116;28;20061;-67
2022/09/23 01:43:04;;;;;;;14.75;9.88;;;;;;;15.98;100.00;99491.84;10373652;28;20096;-67
2022/09/23 01:48:22;;;;;;;12.90;9.13;;;;;;;16.43;100.00;99571.91;10387906;28;20038;-67
2022/09/23 01:53:53;;;;;;;12.30;8.95;;;;;;;16.08;100.00;99528.00;10373053;28;20392;-67
2022/09/23 01:59:35;;;;;;;13.23;9.27;;;;;;;16.35;100.00;99585.59;10372528;28;20140;-67
2022/09/23 02:04:44;;;;;;;40.20;13.38;;;;;;;16.19;100.00;99587.03;10345985;28;20049;-67
2022/09/23 02:09:53;;;;;;;43.35;12.52;;;;;;;16.18;100.00;99572.00;10389652;28;20517;-67
2022/09/23 02:15:15;;;;;;;21.42;11.55;;;;;;;15.87;100.00;99502.47;10394496;28;20052;-68
2022/09/23 02:20:22;;;;;;;51.47;11.60;;;;;;;16.07;100.00;99531.72;10371968;28;20077;-67
2022/09/23 02:25:34;;;;;;;35.67;11.20;;;;;;;16.02;100.00;99520.88;10404084;28;20041;-67
2022/09/23 02:31:00;;;;;;;27.70;10.00;;;;;;;16.13;100.00;99534.34;10412498;28;20042;-67
2022/09/23 02:36:21;;;;;;;11.13;8.50;;;;;;;16.00;100.00;99534.47;10412242;28;20073;-67
2022/09/23 02:41:31;;;;;;;19.70;9.10;;;;;;;15.91;100.00;99528.63;10397326;28;20046;-67
2022/09/23 02:46:33;;;;;;;22.55;7.82;;;;;;;16.01;100.00;99557.56;10371521;28;20044;-67
2022/09/23 02:51:36;;;;;;;19.73;8.10;;;;;;;15.98;100.00;99561.50;10371779;28;20044;-67
2022/09/23 02:56:37;;;;;;;26.30;9.23;;;;;;;15.96;100.00;99576.97;10371633;28;20054;-67
2022/09/23 03:02:00;;;;;;;28.10;8.30;;;;;;;15.94;100.00;99557.63;10372460;28;20041;-68
2022/09/23 03:07:07;;;;;;;8.05;6.97;;;;;;;16.14;100.00;99575.34;10378508;28;20077;-68
2022/09/23 03:12:38;;;;;;;25.60;8.05;;;;;;;16.28;100.00;99592.09;10364937;28;20038;-67
2022/09/23 03:17:57;;;;;;;21.80;9.75;;;;;;;16.24;100.00;99575.63;10372012;28;20077;-68
2022/09/23 03:23:03;;;;;;;29.10;10.52;;;;;;;16.37;100.00;99596.13;10371593;28;20045;-68
2022/09/23 03:28:07;;;;;;;35.42;11.27;;;;;;;16.28;100.00;99574.16;10372105;28;20763;-68
2022/09/23 03:33:11;;;;;;;12.85;9.50;;;;;;;16.45;100.00;99585.06;10371476;28;20387;-67
2022/09/23 03:38:16;;;;;;;15.07;9.82;;;;;;;16.56;100.00;99578.13;10377249;28;20050;-67
2022/09/23 03:43:16;;;;;;;;;;;;;;;16.79;100.00;99585.50;10377886;28;20413;-67
2022/09/23 03:48:17;;;;;;;23.63;10.05;;;;;;;15.89;100.00;99442.31;10377133;28;19913;-67
2022/09/23 03:53:20;;;;;;;20.90;10.75;;;;;;;16.75;100.00;99563.66;10367527;28;20049;-68
2022/09/23 03:58:20;;;;;;;30.40;9.93;;;;;;;16.52;100.00;99496.53;10417215;28;20559;-66
2022/09/23 04:03:21;;;;;;;14.90;10.43;;;;;;;16.42;100.00;99452.34;10418146;28;20052;-67
2022/09/23 04:08:22;;;;;;;21.90;11.45;;;;;;;16.92;100.00;99530.84;10417953;28;20095;-67
2022/09/23 04:13:23;;;;;;;24.20;11.45;;;;;;;16.94;100.00;99512.66;10417342;28;20080;-68
2022/09/23 04:18:24;;;;;;;23.30;12.45;;;;;;;16.87;100.00;99518.94;10417658;28;20068;-67
2022/09/23 04:23:26;;;;;;;21.33;12.65;;;;;;;16.94;100.00;99534.13;10416995;28;20068;-67
2022/09/23 04:28:26;;;;;;;22.48;11.40;;;;;;;16.99;100.00;99531.56;10415352;28;20042;-68
2022/09/23 04:33:27;;;;;;;18.08;10.90;;;;;;;16.71;100.00;99475.84;10416714;28;20042;-68
2022/09/23 04:38:29;;;;;;;30.42;12.52;;;;;;;17.12;100.00;99539.41;10416540;28;20501;-68
2022/09/23 04:43:29;;;;;;;20.33;11.98;;;;;;;17.18;100.00;99537.69;10416375;28;20053;-67
2022/09/23 04:48:31;;;;;;;20.65;13.55;;;;;;;16.89;100.00;99484.66;10415924;28;20041;-66
2022/09/23 04:53:32;;;;;;;18.25;11.93;;;;;;;17.21;100.00;99539.91;10416198;28;20042;-66
2022/09/23 04:58:33;;;;;;;29.83;12.93;;;;;;;16.83;100.00;99456.06;10415510;28;20076;-66
2022/09/23 05:03:34;;;;;;;16.45;11.45;;;;;;;16.77;100.00;99443.56;10416209;28;20038;-67
2022/09/23 05:08:35;;;;;;;40.47;28.38;;;;;;;17.00;100.00;99471.50;10415237;28;20040;-66
2022/09/23 05:13:36;;;;;;;18.73;14.80;;;;;;;17.42;100.00;99525.09;10414870;28;20044;-66
2022/09/23 05:18:40;;;;;;;19.83;11.32;;;;;;;17.11;100.00;99465.31;10415177;28;20045;-66
2022/09/23 05:23:41;;;;;;;15.20;13.23;;;;;;;17.59;100.00;99528.72;10415687;28;20040;-66
2022/09/23 05:28:41;;;;;;;18.05;13.90;;;;;;;17.59;100.00;99552.91;10414531;28;20037;-66
2022/09/23 05:33:47;;;;;;;18.02;13.00;;;;;;;17.60;100.00;99538.41;10414039;28;20099;-69
2022/09/23 05:38:50;;;;;;;17.77;12.88;;;;;;;16.77;100.00;99411.38;10414314;28;20132;-66
2022/09/23 05:43:52;;;;;;;16.75;13.60;;;;;;;17.37;100.00;99495.44;10413735;28;20122;-66
2022/09/23 05:48:54;;;;;;;16.95;14.00;;;;;;;17.88;100.00;99578.03;10414119;28;20073;-67
2022/09/23 05:53:57;;;;;;;15.40;12.35;;;;;;;17.78;100.00;99551.75;10413916;28;20037;-67
2022/09/23 05:58:59;;;;;;;16.70;12.00;;;;;;;17.99;100.00;99571.81;10414124;28;20061;-67
2022/09/23 06:04:02;;;;;;;29.83;21.48;;;;;;;17.87;100.00;99532.59;10413163;28;20417;-67
2022/09/23 06:09:05;;;;;;;28.67;18.80;;;;;;;18.11;100.00;99553.00;10413679;28;20116;-67
2022/09/23 06:14:08;;;;;;;23.00;16.42;;;;;;;18.24;100.00;99559.97;10413720;28;20030;-69
2022/09/23 06:19:09;;;;;;;19.17;15.37;;;;;;;18.40;100.00;99561.94;10413145;28;20531;-67
2022/09/23 06:24:10;;;;;;;20.35;16.33;;;;;;;18.18;100.00;99516.03;10413704;28;20049;-67
2022/09/23 06:29:11;;;;;;;18.38;13.40;;;;;;;18.50;100.00;99561.31;10412416;28;20048;-67
2022/09/23 06:34:12;;;;;;;21.67;18.48;;;;;;;18.56;100.00;99579.19;10413785;28;20045;-67
2022/09/23 06:39:14;;;;;;;13.95;11.15;;;;;;;18.54;100.00;99594.75;10412562;28;20048;-67
2022/09/23 06:44:15;;;;;;;13.25;11.07;;;;;;;18.48;100.00;99598.38;10412241;28;20402;-67
2022/09/23 06:49:15;;;;;;;12.20;10.13;;;;;;;18.49;100.00;99610.78;10415620;28;20130;-68
2022/09/23 06:54:16;;;;;;;16.40;9.95;;;;;;;18.35;100.00;99594.09;10420298;28;20045;-67
2022/09/23 06:59:17;;;;;;;16.40;12.30;;;;;;;18.08;100.00;99558.84;10421199;28;20065;-68
2022/09/23 07:04:18;;;;;;;14.27;11.25;;;;;;;18.43;100.00;99588.34;10420542;28;20068;-67
2022/09/23 07:09:18;;;;;;;13.00;11.13;;;;;;;18.28;100.00;99549.56;10420311;28;20091;-67
2022/09/23 07:14:19;;;;;;;14.32;11.98;;;;;;;18.85;100.00;99614.22;10420082;28;20551;-67
2022/09/23 07:19:20;;;;;;;10.90;9.20;;;;;;;18.90;100.00;99623.19;10420546;28;20037;-68
2022/09/23 07:24:21;;;;;;;15.18;10.38;;;;;;;18.49;100.00;99551.63;10419895;28;20052;-67
2022/09/23 07:29:22;;;;;;;23.70;10.18;;;;;;;19.03;100.00;99630.19;10419438;28;20104;-67
2022/09/23 07:34:26;;;;;;;14.00;8.60;;;;;;;18.81;100.00;99607.66;10402209;28;20061;-68
2022/09/23 07:39:27;;;;;;;10.30;9.15;;;;;;;18.90;100.00;99627.75;10418461;28;20079;-68
2022/09/23 07:44:30;;;;;;;11.82;7.28;;;;;;;19.09;100.00;99642.66;10417800;28;20061;-68
2022/09/23 07:49:34;;;;;;;18.43;7.13;;;;;;;19.14;100.00;99615.00;10418721;28;20047;-67
2022/09/23 07:54:35;;;;;;;;;;;;;;;19.50;100.00;99629.09;10418495;28;20489;-67
2022/09/23 07:59:36;;;;;;;12.02;8.15;;;;;;;19.43;100.00;99625.75;10416438;28;19921;-68
2022/09/23 08:04:36;;;;;;;8.88;6.85;;;;;;;19.29;100.00;99588.34;10418929;28;20048;-69
2022/09/23 08:09:40;;;;;;;9.02;6.40;;;;;;;19.14;100.00;99547.69;10417878;28;20060;-68
2022/09/23 08:14:41;;;;;;;9.88;6.40;;;;;;;19.80;100.00;99609.94;10417741;28;20505;-67
2022/09/23 08:19:42;;;;;;;10.43;7.20;;;;;;;19.92;100.00;99612.53;10417083;28;20041;-67
2022/09/23 08:24:43;;;;;;;9.93;6.25;;;;;;;19.46;100.00;99545.28;10416829;28;20041;-68
2022/09/23 08:29:43;;;;;;;11.45;6.93;;;;;;;19.86;100.00;99591.97;10417511;28;20128;-68
2022/09/23 08:34:44;;;;;;;8.45;6.53;;;;;;;20.06;100.00;99598.47;10416417;28;20461;-68
2022/09/23 08:39:45;;;;;;;12.52;7.35;;;;;;;20.33;100.00;99591.53;10416984;28;20045;-67
2022/09/23 08:44:49;;;;;;;11.60;5.80;;;;;;;20.49;99.09;99585.25;10415985;28;20046;-68
2022/09/23 08:50:12;;;;;;;11.95;7.50;;;;;;;20.83;95.57;99585.94;10416186;28;20440;-67
2022/09/23 08:55:15;;;;;;;8.32;6.22;;;;;;;20.65;96.92;99556.59;10416309;28;20048;-68
2022/09/23 09:00:20;;;;;;;17.90;8.07;;;;;;;21.03;95.95;99584.50;10416792;28;20413;-67
2022/09/23 09:05:27;;;;;;;10.38;7.10;;;;;;;21.30;93.75;99598.84;10416405;28;20045;-67
2022/09/23 09:10:36;;;;;;;22.90;10.52;;;;;;;21.19;93.33;99557.41;10415321;28;20041;-69
2022/09/23 09:15:48;;;;;;;11.43;7.50;;;;;;;20.93;91.11;99505.03;10415989;28;20041;-69
2022/09/23 09:21:08;;;;;;;26.73;6.35;;;;;;;21.24;91.55;99543.13;10415231;28;20509;-67
2022/09/23 09:26:36;;;;;;;9.50;6.60;;;;;;;21.57;92.21;99579.09;10415007;28;20437;-67
2022/09/23 09:31:42;;;;;;;7.53;5.20;;;;;;;21.41;91.40;99581.66;10413113;28;20452;-67
2022/09/23 09:37:05;;;;;;;6.13;5.22;;;;;;;21.23;88.73;99540.69;10413962;28;20112;-67
2022/09/23 09:42:19;;;;;;;9.45;5.85;;;;;;;21.47;89.50;99596.00;10414408;28;20424;-68
2022/09/23 09:47:50;;;;;;;11.00;6.70;;;;;;;21.41;88.19;99551.94;10414207;28;20046;-68
2022/09/23 09:53:13;;;;;;;10.10;5.60;;;;;;;22.28;86.45;99632.81;10412014;28;20429;-68
2022/09/23 09:58:15;;;;;;;7.37;5.30;;;;;;;22.32;85.29;99612.28;10428824;28;20425;-67
2022/09/23 10:03:53;;;;;;;9.38;6.20;;;;;;;22.65;83.70;99650.88;10413949;28;20042;-68
2022/09/23 10:09:17;;;;;;;9.57;5.35;;;;;;;22.76;83.43;99618.16;10386777;28;20057;-68
2022/09/23 10:14:35;;;;;;;10.00;6.30;;;;;;;22.73;83.89;99645.75;10531827;27;20381;-69
2022/09/23 10:19:43;;;;;;;7.18;4.85;;;;;;;22.76;83.13;99655.22;10532198;28;20161;-66
2022/09/23 10:24:49;;;;;;;5.68;3.88;;;;;;;22.84;81.74;99648.50;10530122;28;20079;-71
2022/09/23 10:29:50;;;;;;;7.50;5.03;;;;;;;22.66;82.86;99653.31;10531857;28;20036;-71
2022/09/23 10:34:57;;;;;;;8.10;5.30;;;;;;;21.92;83.32;99570.38;10531627;28;20032;-68
2022/09/23 10:50:48;;;;;;;7.15;4.07;;;;;;;21.60;84.66;99608.31;10531035;28;20136;-67
2022/09/23 10:56:16;;;;;;;6.45;3.75;;;;;;;22.30;84.28;99696.41;10529530;28;20524;-70
2022/09/23 11:01:35;;;;;;;6.57;3.83;;;;;;;22.14;83.73;99708.19;10530300;28;20119;-68
2022/09/23 11:06:45;;;;;;;6.00;4.65;;;;;;;21.57;84.57;99642.06;10530823;28;20553;-68
2022/09/23 11:11:58;;;;;;;4.45;3.58;;;;;;;22.05;85.49;99720.56;10530085;28;20428;-69
2022/09/23 11:17:28;;;;;;;4.73;3.37;;;;;;;22.03;84.07;99682.16;10529154;28;20076;-68
2022/09/23 11:22:44;;;;;;;5.10;3.20;;;;;;;22.42;81.68;99708.94;10521207;28;20509;-72
2022/09/23 11:27:56;;;;;;;5.53;2.95;;;;;;;22.31;81.31;99695.34;10501914;28;20036;-69
2022/09/23 11:33:20;;;;;;;4.07;2.28;;;;;;;22.43;79.33;99721.38;10501096;28;20071;-70
2022/09/23 11:38:36;;;;;;;5.25;2.67;;;;;;;22.05;80.04;99672.69;10499586;28;20041;-68
2022/09/23 11:43:40;;;;;;;4.13;2.70;;;;;;;21.97;80.21;99659.66;10501144;28;20036;-68
2022/09/23 11:48:50;;;;;;;4.32;2.88;;;;;;;22.31;79.05;99692.63;10501752;28;20051;-68
2022/09/23 11:54:08;;;;;;;8.52;2.80;;;;;;;22.02;79.65;99585.88;10500286;28;20048;-68
2022/09/23 11:59:23;;;;;;;13.35;3.95;;;;;;;21.99;78.18;99565.56;10500820;28;20041;-68
2022/09/23 12:04:30;;;;;;;3.92;2.75;;;;;;;22.50;76.54;99659.75;10499817;28;20044;-68
2022/09/23 12:09:37;;;;;;;8.00;3.72;;;;;;;21.65;77.02;99543.44;10499998;28;20040;-69
2022/09/23 12:15:15;;;;;;;4.88;2.67;;;;;;;22.66;77.13;99693.91;10499136;28;20044;-68
2022/09/23 12:20:54;;;;;;;7.85;3.20;;;;;;;22.81;75.26;99705.91;10476157;28;20036;-67
2022/09/23 12:26:00;;;;;;;5.50;2.30;;;;;;;23.33;73.41;99688.75;10460193;28;20044;-71
2022/09/23 12:31:03;;;;;;;6.95;2.80;;;;;;;23.55;73.30;99683.91;10476330;28;20098;-69
2022/09/23 12:36:11;;;;;;;5.30;3.03;;;;;;;23.40;72.02;99682.00;10474021;28;20033;-72
2022/09/23 12:41:34;;;;;;;4.65;2.22;;;;;;;23.32;72.48;99717.75;10476566;28;20036;-71
2022/09/23 12:46:34;;;;;;;4.35;2.33;;;;;;;23.04;73.01;99720.94;10490316;28;20132;-69
2022/09/23 12:51:35;;;;;;;4.00;2.05;;;;;;;22.97;72.15;99731.97;10466553;28;20554;-69
2022/09/23 12:56:36;;;;;;;5.57;2.25;;;;;;;22.67;72.56;99684.69;10470126;28;20076;-71
2022/09/23 13:01:38;;;;;;;4.20;2.60;;;;;;;22.90;72.08;99751.16;10477674;28;20036;-71
2022/09/23 13:07:07;;;;;;;3.58;2.33;;;;;;;22.91;70.63;99776.34;10458968;28;20045;-70
2022/09/23 13:12:22;;;;;;;3.67;2.55;;;;;;;22.61;71.23;99772.38;10472215;28;20467;-68
2022/09/23 13:17:36;;;;;;;6.47;3.65;;;;;;;22.42;71.75;99769.28;10456150;28;20040;-74
2022/09/23 13:22:50;;;;;;;5.32;3.00;;;;;;;22.42;72.33;99790.94;10455879;28;20404;-68
2022/09/23 13:27:56;;;;;;;16.60;3.75;;;;;;;21.74;73.50;99693.25;10475654;28;20044;-68
2022/09/23 13:33:41;;;;;;;6.03;3.05;;;;;;;22.40;71.93;99797.69;10470666;28;20080;-68
2022/09/23 13:38:42;;;;;;;40.72;5.10;;;;;;;22.31;72.31;99806.28;10468039;28;20044;-68
2022/09/23 13:44:02;;;;;;;7.97;2.20;;;;;;;22.29;71.48;99803.03;10485077;28;20125;-71
2022/09/23 13:49:03;;;;;;;4.15;1.92;;;;;;;22.08;71.93;99812.03;10467214;28;20110;-69
2022/09/23 13:54:04;;;;;;;4.38;1.20;;;;;;;21.55;70.75;99737.97;10446626;28;20053;-70
2022/09/23 13:59:23;;;;;;;6.00;1.50;;;;;;;22.17;68.60;99836.75;10448987;28;20048;-71
2022/09/23 14:04:25;;;;;;;4.47;1.70;;;;;;;22.16;67.95;99846.69;10448754;28;20047;-71
2022/09/23 14:09:28;;;;;;;13.20;2.40;;;;;;;22.23;67.62;99857.38;10446602;28;20037;-69
2022/09/23 14:14:30;;;;;;;2.28;1.20;;;;;;;22.18;67.89;99868.94;10448550;28;20056;-69
2022/09/23 14:19:31;;;;;;;7.97;1.70;;;;;;;22.01;68.23;99862.78;10447297;28;20128;-74
2022/09/23 14:24:35;;;;;;;2.40;1.30;;;;;;;21.92;68.02;99886.75;10447764;28;20483;-71
2022/09/23 14:29:41;;;;;;;2.25;1.10;;;;;;;21.71;67.49;99879.50;10448440;28;20068;-74
2022/09/23 14:34:45;;;;;;;6.85;4.18;;;;;;;21.62;68.61;99915.06;10445413;28;20405;-68
2022/09/23 14:39:50;;;;;;;10.02;4.05;;;;;;;21.34;68.77;99891.72;10446668;28;20412;-69
2022/09/23 14:44:50;;;;;;;7.35;2.70;;;;;;;21.37;69.17;99930.97;10446866;28;20818;-72
2022/09/23 14:55:17;;;;;;;9.13;2.60;;;;;;;20.89;70.60;99938.59;10445345;28;20049;-68
2022/09/23 15:00:19;;;;;;;7.63;2.15;;;;;;;20.70;71.56;99947.97;10452862;28;20047;-69
2022/09/23 15:05:22;;;;;;;6.15;2.00;;;;;;;20.05;72.20;99890.72;10454735;28;20068;-68
2022/09/23 15:10:31;;;;;;;5.27;2.00;;;;;;;20.41;72.24;99968.78;10454549;28;20084;-69
2022/09/23 15:15:32;;;;;;;7.07;1.70;;;;;;;19.93;73.07;99927.69;10454171;28;20072;-68
2022/09/23 15:20:34;;;;;;;3.40;2.00;;;;;;;20.08;73.60;99978.41;10454912;28;20077;-69
2022/09/23 15:25:40;;;;;;;7.53;2.20;;;;;;;19.52;73.64;99907.16;10453801;28;20045;-72
2022/09/23 15:30:40;;;;;;;5.50;1.95;;;;;;;19.93;73.48;99992.41;10452278;28;20056;-69
2022/09/23 15:35:45;;;;;;;3.65;1.50;;;;;;;19.89;73.00;100014.66;10493363;28;20500;-70
2022/09/23 15:40:47;;;;;;;3.60;1.67;;;;;;;19.82;72.93;100017.50;10501350;28;20045;-70
2022/09/23 15:46:03;;;;;;;5.22;2.30;;;;;;;19.75;72.78;100027.59;10500952;28;20041;-68
2022/09/23 15:51:07;;;;;;;4.20;2.30;;;;;;;19.66;73.32;100037.91;10461010;28;20049;-67
2022/09/23 15:56:07;;;;;;;8.90;2.10;;;;;;;19.54;73.90;100045.13;10459162;28;20487;-68
2022/09/23 16:01:26;;;;;;;3.17;1.65;;;;;;;19.12;73.82;99999.44;10452475;28;20106;-73
2022/09/23 16:06:27;;;;;;;5.18;2.35;;;;;;;19.45;74.13;100078.88;10426276;28;20061;-68
2022/09/23 16:11:32;;;;;;;3.45;1.80;;;;;;;19.42;74.06;100093.63;10418537;28;20096;-70
2022/09/23 16:16:33;;;;;;;6.22;1.73;;;;;;;19.37;74.10;100105.06;10429074;28;20084;-70
2022/09/23 16:21:34;;;;;;;4.90;1.98;;;;;;;19.34;74.43;100116.31;10433701;28;20067;-70
2022/09/23 16:26:37;;;;;;;4.38;1.60;;;;;;;19.28;74.46;100141.47;10431569;28;20480;-69
2022/09/23 16:31:38;;;;;;;2.63;1.30;;;;;;;19.20;74.04;100151.75;10429955;28;20041;-70
2022/09/23 16:36:41;;;;;;;3.22;1.00;;;;;;;19.09;73.39;100178.41;10423221;28;20059;-70
2022/09/23 16:41:42;;;;;;;1.90;0.90;;;;;;;18.93;73.38;100160.19;10430782;28;20041;-69
2022/09/23 16:46:43;;;;;;;2.40;0.88;;;;;;;18.81;73.84;100183.53;10429730;28;20492;-70
2022/09/23 16:51:44;;;;;;;1.75;1.00;;;;;;;18.87;74.48;100223.81;10430244;28;20041;-68
2022/09/23 16:56:45;;;;;;;3.22;1.05;;;;;;;18.73;75.07;100222.34;10424189;28;20497;-70
2022/09/23 17:07:05;;;;;;;1.83;1.10;;;;;;;18.44;75.16;100245.38;10437363;28;20042;-70
2022/09/23 17:12:28;;;;;;;4.47;1.33;;;;;;;18.36;74.71;100241.09;10430578;28;20079;-72
2022/09/23 17:17:28;;;;;;;3.47;1.10;;;;;;;18.29;74.40;100239.53;10436227;28;20037;-70
2022/09/23 17:22:29;;;;;;;2.53;1.38;;;;;;;18.06;74.37;100219.47;10421183;28;20045;-71
2022/09/23 17:27:30;;;;;;;2.67;1.50;;;;;;;17.97;74.79;100215.41;10429426;28;20037;-72
2022/09/23 17:32:31;;;;;;;2.22;1.48;;;;;;;17.98;75.41;100230.50;10428301;28;20594;-73
2022/09/23 17:37:32;;;;;;;2.42;1.42;;;;;;;17.89;76.84;100258.66;10419933;28;20048;-69
2022/09/23 17:42:37;;;;;;;8.63;2.30;;;;;;;17.77;77.69;100243.25;10431662;28;20064;-68
2022/09/23 17:47:38;;;;;;;3.47;2.25;;;;;;;17.57;77.63;100211.13;10432821;28;20037;-69
2022/09/23 17:52:39;;;;;;;3.58;2.03;;;;;;;17.58;77.89;100231.56;10432552;28;20052;-71
2022/09/23 17:57:40;;;;;;;4.20;2.10;;;;;;;17.53;78.01;100247.53;10429180;28;20481;-68
2022/09/23 18:02:40;;;;;;;3.88;2.03;;;;;;;17.52;78.02;100255.78;10431539;28;20124;-69
2022/09/23 18:07:41;;;;;;;2.78;1.90;;;;;;;17.49;78.15;100272.34;10431801;28;20377;-70
2022/09/23 18:12:42;;;;;;;5.45;2.13;;;;;;;17.36;77.87;100277.78;10431460;28;20484;-68
2022/09/23 18:17:43;;;;;;;3.10;2.00;;;;;;;16.83;78.27;100215.22;10426430;28;20037;-70
2022/09/23 18:22:44;;;;;;;3.45;2.13;;;;;;;17.04;79.18;100305.34;10417229;28;20030;-68
2022/09/23 18:27:44;;;;;;;3.72;2.30;;;;;;;16.91;79.44;100305.41;10412948;28;20171;-69
2022/09/23 18:32:45;;;;;;;3.63;2.33;;;;;;;16.76;79.75;100302.97;10414540;28;20041;-70
2022/09/23 18:37:46;;;;;;;3.28;2.35;;;;;;;16.03;79.75;100206.50;10420767;28;20420;-69
2022/09/23 18:42:46;;;;;;;5.35;2.92;;;;;;;16.38;79.89;100284.81;10442506;28;20041;-69
2022/09/23 18:53:07;;;;;;;4.65;3.45;;;;;;;15.78;80.63;100222.38;10437438;28;20178;-69
2022/09/23 18:58:09;;;;;;;5.47;3.22;;;;;;;16.31;80.75;100329.56;10446676;28;20034;-69
2022/09/23 19:03:09;;;;;;;4.43;3.15;;;;;;;16.20;80.55;100324.81;10447734;28;20420;-68
2022/09/23 19:08:10;;;;;;;5.28;3.80;;;;;;;15.78;80.18;100275.94;10434456;28;20051;-69
2022/09/23 19:13:12;;;;;;;4.65;3.72;;;;;;;15.94;79.71;100314.88;10432888;28;20195;-70
2022/09/23 19:18:13;;;;;;;3.80;3.03;;;;;;;15.62;79.44;100287.00;10440734;28;20131;-71
2022/09/23 19:23:14;;;;;;;3.83;3.05;;;;;;;15.66;79.09;100323.06;10442819;28;20111;-70
2022/09/23 19:28:15;;;;;;;5.25;3.17;;;;;;;15.68;78.87;100354.00;10441892;28;20484;-68
2022/09/23 19:33:16;;;;;;;5.53;3.15;;;;;;;15.65;78.51;100359.72;10435550;28;20156;-67
2022/09/23 19:38:19;;;;;;;6.55;4.03;;;;;;;15.41;78.43;100334.31;10418454;28;20045;-70
2022/09/23 19:43:21;;;;;;;4.93;3.77;;;;;;;15.49;78.57;100358.19;10443690;28;20040;-68
2022/09/23 19:48:22;;;;;;;6.32;4.30;;;;;;;15.37;78.70;100322.31;10434698;28;20051;-69
2022/09/23 19:53:23;;;;;;;5.35;3.45;;;;;;;15.32;79.10;100346.19;10416881;28;20507;-68
2022/09/23 19:58:24;;;;;;;4.38;3.20;;;;;;;15.17;79.26;100356.22;10416919;28;20048;-68
2022/09/23 20:03:25;;;;;;;4.25;3.25;;;;;;;15.03;79.62;100361.47;10418856;28;20095;-68
2022/09/23 20:08:26;;;;;;;3.92;3.53;;;;;;;15.12;80.44;100364.81;10417370;28;20096;-68
2022/09/23 20:13:27;;;;;;;11.32;4.32;;;;;;;14.64;81.04;100289.84;10416735;28;20127;-68
2022/09/23 20:18:28;;;;;;;5.50;3.88;;;;;;;14.47;81.52;100283.94;10417659;28;20041;-68
2022/09/23 20:23:29;;;;;;;4.82;3.53;;;;;;;14.89;82.02;100364.25;10417164;28;20128;-68
2022/09/23 20:28:30;;;;;;;4.80;3.58;;;;;;;14.51;82.62;100311.97;10417360;28;20140;-68
2022/09/23 20:33:31;;;;;;;6.93;3.78;;;;;;;14.54;83.80;100338.31;10416462;28;20044;-68
2022/09/23 20:38:32;;;;;;;6.32;3.97;;;;;;;14.50;84.21;100325.50;10414588;28;20044;-68
2022/09/23 20:43:33;;;;;;;4.85;4.10;;;;;;;14.26;84.55;100297.34;10416165;28;20037;-68
2022/09/23 20:48:34;;;;;;;8.13;4.30;;;;;;;14.62;84.54;100361.38;10415006;28;20443;-68
2022/09/23 20:53:34;;;;;;;4.80;3.80;;;;;;;14.53;84.26;100346.53;10415016;28;20094;-68
2022/09/23 20:58:35;;;;;;;5.53;3.97;;;;;;;14.58;84.34;100365.47;10414926;28;20037;-68
2022/09/23 21:03:42;;;;;;;5.13;3.92;;;;;;;14.54;84.43;100369.56;10413367;28;20037;-68
2022/09/23 21:08:43;;;;;;;4.82;3.92;;;;;;;14.33;84.42;100349.84;10414074;28;20401;-69
2022/09/23 21:13:47;;;;;;;4.57;3.80;;;;;;;13.15;84.85;100188.25;10415396;28;20085;-68
2022/09/23 21:18:49;;;;;;;4.45;3.42;;;;;;;14.19;84.83;100360.59;10414892;28;20038;-68
2022/09/23 21:23:50;;;;;;;4.07;3.40;;;;;;;14.18;85.34;100382.97;10413940;28;20045;-68
2022/09/23 21:28:54;;;;;;;7.35;4.25;;;;;;;14.10;85.69;100390.09;10414615;28;20037;-68
2022/09/23 21:33:59;;;;;;;7.10;3.72;;;;;;;14.07;85.79;100403.84;10414541;28;20037;-68
2022/09/23 21:39:00;;;;;;;5.57;3.92;;;;;;;13.49;86.13;100325.56;10412665;28;20143;-68
2022/09/23 21:44:03;;;;;;;5.60;3.80;;;;;;;13.70;86.46;100362.16;10414411;28;20128;-68
2022/09/23 21:49:04;;;;;;;10.32;5.63;;;;;;;13.46;87.26;100358.78;10412650;28;20041;-68
2022/09/23 21:54:11;;;;;;;15.65;6.95;;;;;;;13.44;88.00;100376.81;10414153;28;20041;-68
2022/09/23 21:59:12;;;;;;;7.13;4.32;;;;;;;13.44;87.98;100362.66;10412780;28;20128;-68
2022/09/23 22:04:15;;;;;;;6.50;4.80;;;;;;;13.56;88.64;100387.03;10413367;28;20400;-68
2022/09/23 22:09:19;;;;;;;7.27;4.00;;;;;;;13.10;88.34;100337.34;10412501;28;20485;-68
2022/09/23 22:14:24;;;;;;;5.20;4.13;;;;;;;13.27;88.89;100383.34;10413565;28;20061;-68
2022/09/23 22:19:31;;;;;;;6.60;4.05;;;;;;;12.75;89.31;100313.06;10412489;28;20095;-68
2022/09/23 22:24:32;;;;;;;19.48;5.15;;;;;;;12.71;89.02;100292.28;10428414;28;20095;-69
2022/09/23 22:34:52;;;;;;;21.02;6.32;;;;;;;13.53;89.95;100409.56;10412629;28;20045;-67
2022/09/23 22:39:53;;;;;;;6.93;4.65;;;;;;;13.64;89.91;100409.09;10411823;28;20041;-68
2022/09/23 22:44:54;;;;;;;4.70;3.63;;;;;;;13.65;89.13;100381.38;10412672;28;20034;-68
2022/09/23 22:49:55;;;;;;;7.38;3.50;;;;;;;13.75;88.50;100386.41;10412308;28;20045;-68
2022/09/23 22:54:56;;;;;;;4.47;3.63;;;;;;;13.67;87.97;100368.69;10412495;28;20493;-68
2022/09/23 22:59:56;;;;;;;8.60;3.85;;;;;;;13.74;87.48;100366.09;10411777;28;20045;-67
2022/09/23 23:04:59;;;;;;;5.15;3.70;;;;;;;13.61;87.52;100328.53;10412142;28;20075;-68
2022/09/23 23:10:00;;;;;;;8.65;4.53;;;;;;;14.04;87.46;100390.03;10412444;28;20166;-68
2022/09/23 23:15:01;;;;;;;4.25;3.35;;;;;;;14.02;87.21;100368.03;10412860;28;20512;-69
2022/09/23 23:20:01;;;;;;;8.18;4.25;;;;;;;13.86;87.25;100339.72;10415909;28;20041;-68
2022/09/23 23:25:02;;;;;;;8.25;5.00;;;;;;;13.86;88.13;100355.75;10418796;28;20045;-68
2022/09/23 23:30:04;;;;;;;15.45;5.20;;;;;;;13.90;89.01;100391.72;10418991;28;20064;-68
2022/09/23 23:35:05;;;;;;;9.52;5.05;;;;;;;13.73;88.82;100376.94;10434550;28;20041;-68
2022/09/23 23:40:06;;;;;;;8.60;5.35;;;;;;;13.17;89.43;100305.44;10419054;28;20045;-68
2022/09/23 23:45:07;;;;;;;15.27;7.30;;;;;;;12.92;90.55;100272.88;10418038;28;20511;-68
2022/09/23 23:50:08;;;;;;;24.80;8.43;;;;;;;13.19;90.68;100316.72;10418780;28;20049;-68